Archival Weather

Greater Kankakee

Kankakee, Illinois (KIKK)

Report from: Wednesday, December 6, 2023 3:35 PM CST
Current time: Saturday, February 24, 2024 9:47 AM CST

Current weather – Weather history – Daily summaries
Weather forecast

Temperature2.5°C (36.5°F)
Wind chill-1.9°C (28.6°F)
Dew point-0.8°C (30.6°F)
Winds 10 kts (5.1 m/s, 11.5 mph) West-Southwest (240°)
Visibility10 mi. (16.1 km)
Clouds Ceiling: Overcast 1,700 ft. (518 m)
Altimeter30.23 in.Hg (1024 mB)
Relative humidity79 %
Density altitude-1,787 ft. (-545 m)
Remarks Fully automated report
Automated weather observing station with precipitation discriminator
Present weather sensor not operating
Flight conditions Marginal Visual Meteorological Conditions
Raw dataKIKK 062135Z AUTO 24010KT 10SM OVC017 03/M01 A3023 RMK AO2 T00251008 PWINO
An error has occurred. This application may no longer respond until reloaded. Reload 🗙